createdAt,value
2019-02-17T00:02:11.570Z,47.23
2019-02-17T00:05:18.418Z,40.87
2019-02-17T00:08:25.292Z,39.20
2019-02-17T00:11:32.118Z,43.07
2019-02-17T00:14:38.933Z,41.60
2019-02-17T00:17:45.728Z,40.97
2019-02-17T00:20:52.652Z,51.07
2019-02-17T00:23:59.391Z,46.00
2019-02-17T00:27:06.208Z,43.40
2019-02-17T00:30:13.061Z,46.83
2019-02-17T00:33:19.916Z,46.57
2019-02-17T00:36:26.634Z,41.67
2019-02-17T00:39:33.442Z,40.97
2019-02-17T00:42:40.264Z,33.80
2019-02-17T00:45:47.018Z,41.53
2019-02-17T00:48:53.812Z,43.33
2019-02-17T00:52:01.751Z,35.50
2019-02-17T00:55:09.611Z,37.27
2019-02-17T00:58:17.193Z,40.53
2019-02-17T01:01:24.283Z,40.10
2019-02-17T01:04:31.118Z,39.83
2019-02-17T01:07:38.024Z,42.50
2019-02-17T01:10:44.784Z,37.23
2019-02-17T01:13:51.584Z,34.97
2019-02-17T01:16:58.620Z,39.60
2019-02-17T01:20:05.680Z,36.70
2019-02-17T01:23:12.472Z,36.63
2019-02-17T01:26:19.555Z,35.13
2019-02-17T01:29:26.397Z,38.63
2019-02-17T01:32:33.287Z,42.63
2019-02-17T01:35:40.045Z,39.13
2019-02-17T01:38:46.847Z,39.50
2019-02-17T01:41:54.071Z,43.93
2019-02-17T01:45:01.024Z,37.63
2019-02-17T01:48:07.847Z,36.60
2019-02-17T01:51:14.723Z,44.03
2019-02-17T01:54:21.956Z,36.97
2019-02-17T01:57:29.007Z,43.30
2019-02-17T02:00:35.856Z,45.50
2019-02-17T02:03:42.688Z,49.73
2019-02-17T02:06:49.450Z,43.63
2019-02-17T02:09:56.194Z,45.53
2019-02-17T02:13:03.079Z,40.17
2019-02-17T02:16:09.919Z,40.17
2019-02-17T02:19:17.053Z,37.57
2019-02-17T02:22:23.819Z,38.50
2019-02-17T02:25:30.691Z,37.27
2019-02-17T02:28:37.809Z,35.47
2019-02-17T02:31:44.538Z,36.17
2019-02-17T02:34:51.411Z,37.10
2019-02-17T02:37:58.196Z,33.43
2019-02-17T02:41:05.141Z,40.10
2019-02-17T02:44:12.200Z,34.13
2019-02-17T02:47:19.194Z,31.87
2019-02-17T02:50:25.937Z,40.27
2019-02-17T02:53:33.068Z,33.10
2019-02-17T02:56:39.868Z,33.30
2019-02-17T02:59:52.464Z,34.33
2019-02-17T03:02:54.963Z,34.27
2019-02-17T03:06:14.308Z,32.37
2019-02-17T03:09:21.565Z,32.30
2019-02-17T03:12:28.360Z,29.33
2019-02-17T03:15:35.854Z,26.93
2019-02-17T03:18:42.654Z,34.97
2019-02-17T03:21:49.451Z,34.13
2019-02-17T03:24:56.417Z,35.00
2019-02-17T03:28:03.273Z,40.80
2019-02-17T03:31:10.109Z,35.67
2019-02-17T03:34:16.961Z,35.23
2019-02-17T03:37:24.790Z,34.80
2019-02-17T03:40:32.715Z,42.30
2019-02-17T03:43:39.442Z,37.90
2019-02-17T03:46:46.227Z,38.40
2019-02-17T03:49:53.111Z,38.07
2019-02-17T03:52:59.971Z,37.50
2019-02-17T03:56:06.761Z,40.00
2019-02-17T03:59:13.503Z,35.93
2019-02-17T04:02:20.488Z,39.73
2019-02-17T04:05:27.301Z,39.43
2019-02-17T04:08:34.150Z,36.80
2019-02-17T04:11:40.899Z,42.70
2019-02-17T04:14:47.681Z,44.33
2019-02-17T04:17:54.472Z,44.70
2019-02-17T04:21:01.225Z,35.47
2019-02-17T04:24:07.987Z,39.53
2019-02-17T04:27:15.401Z,38.27
2019-02-17T04:30:29.454Z,35.43
2019-02-17T04:33:30.619Z,32.30
2019-02-17T04:36:37.355Z,35.10
2019-02-17T04:39:44.122Z,36.13
2019-02-17T04:42:50.911Z,33.93
2019-02-17T04:45:57.751Z,33.67
2019-02-17T04:49:04.520Z,29.73
2019-02-17T04:52:11.326Z,34.03
2019-02-17T04:55:18.229Z,31.57
2019-02-17T04:58:25.052Z,37.60
2019-02-17T05:01:33.456Z,32.47
2019-02-17T05:04:40.247Z,37.53
2019-02-17T05:07:47.040Z,36.87
2019-02-17T05:10:53.918Z,29.00
2019-02-17T05:14:00.673Z,31.80
2019-02-17T05:17:08.946Z,33.30
2019-02-17T05:20:15.708Z,29.70
2019-02-17T05:23:22.490Z,29.80
2019-02-17T05:26:29.616Z,31.37
2019-02-17T05:29:36.422Z,35.20
2019-02-17T05:32:43.192Z,36.70
2019-02-17T05:35:50.074Z,38.17
2019-02-17T05:38:56.826Z,35.07
2019-02-17T05:42:03.602Z,39.67
2019-02-17T05:45:10.364Z,38.23
2019-02-17T05:48:17.065Z,38.60
2019-02-17T05:51:24.910Z,42.87
2019-02-17T05:54:31.624Z,45.10
2019-02-17T05:57:38.418Z,41.87
2019-02-17T06:00:45.097Z,39.53
2019-02-17T06:03:52.026Z,33.90
2019-02-17T06:06:59.160Z,38.53
2019-02-17T06:10:06.650Z,34.93
2019-02-17T06:13:13.484Z,37.20
2019-02-17T06:16:20.280Z,37.13
2019-02-17T06:19:27.324Z,43.00
2019-02-17T06:22:34.116Z,38.80
2019-02-17T06:25:40.913Z,40.90
2019-02-17T06:28:47.851Z,43.67
2019-02-17T06:31:54.660Z,36.40
2019-02-17T06:35:01.527Z,32.20
2019-02-17T06:38:08.369Z,35.53
2019-02-17T06:41:15.081Z,38.60
2019-02-17T06:44:21.875Z,35.70
2019-02-17T06:47:32.559Z,40.33
2019-02-17T06:50:39.341Z,40.20
2019-02-17T06:53:46.213Z,42.70
2019-02-17T06:56:58.430Z,37.70
2019-02-17T07:00:15.124Z,42.77
2019-02-17T07:03:21.972Z,51.47
2019-02-17T07:06:35.386Z,50.67
2019-02-17T07:09:42.264Z,45.87
2019-02-17T07:12:49.083Z,48.20
2019-02-17T07:15:55.888Z,43.20
2019-02-17T07:19:02.863Z,39.10
2019-02-17T07:22:09.767Z,42.07
2019-02-17T07:25:16.587Z,47.77
2019-02-17T07:28:23.577Z,43.50
2019-02-17T07:31:34.939Z,47.13
2019-02-17T07:34:38.785Z,45.67
2019-02-17T07:37:45.545Z,47.93
2019-02-17T07:40:52.349Z,55.50
2019-02-17T07:43:59.203Z,49.73
2019-02-17T07:47:06.004Z,49.20
2019-02-17T07:50:12.801Z,46.70
2019-02-17T07:53:19.620Z,53.77
2019-02-17T07:56:26.423Z,57.03
2019-02-17T07:59:33.259Z,47.87
2019-02-17T08:02:40.038Z,53.43
2019-02-17T08:05:46.881Z,45.27
2019-02-17T08:08:53.791Z,44.67
2019-02-17T08:12:00.588Z,58.73
2019-02-17T08:15:07.920Z,50.77
2019-02-17T08:18:14.826Z,104.37
2019-02-17T08:21:21.793Z,69.30
2019-02-17T08:24:28.783Z,53.37
2019-02-17T08:27:35.715Z,47.77
2019-02-17T08:30:42.490Z,56.10
2019-02-17T08:33:49.307Z,48.80
2019-02-17T08:36:56.155Z,50.97
2019-02-17T08:40:02.976Z,53.30
2019-02-17T08:43:09.906Z,62.17
2019-02-17T08:46:16.749Z,53.50
2019-02-17T08:49:23.642Z,55.40
2019-02-17T08:52:30.735Z,50.93
2019-02-17T08:55:37.572Z,55.83
2019-02-17T08:58:44.323Z,55.95
2019-02-17T09:01:51.234Z,51.33
2019-02-17T09:04:58.566Z,47.40
2019-02-17T09:08:05.441Z,51.92
2019-02-17T09:11:12.356Z,45.60
2019-02-17T09:14:19.102Z,50.30
2019-02-17T09:17:26.188Z,49.57
2019-02-17T09:20:33.046Z,52.83
2019-02-17T09:23:39.926Z,53.40
2019-02-17T09:26:46.944Z,51.45
2019-02-17T09:29:54.292Z,53.13
2019-02-17T09:33:01.583Z,51.63
2019-02-17T09:36:08.564Z,56.37
2019-02-17T09:39:15.491Z,59.30
2019-02-17T09:42:22.482Z,48.03
2019-02-17T09:45:30.112Z,60.53
2019-02-17T09:48:39.264Z,54.93
2019-02-17T09:51:47.072Z,57.13
2019-02-17T09:54:54.370Z,58.47
2019-02-17T09:58:03.116Z,58.97
2019-02-17T10:01:10.164Z,56.60
2019-02-17T10:04:18.466Z,49.70
2019-02-17T10:07:25.420Z,59.57
2019-02-17T10:10:32.334Z,58.80
2019-02-17T10:13:39.144Z,51.70
2019-02-17T10:16:45.983Z,54.10
2019-02-17T10:19:52.901Z,53.97
2019-02-17T10:22:59.847Z,46.70
2019-02-17T10:26:06.692Z,51.23
2019-02-17T10:29:13.541Z,53.43
2019-02-17T10:32:20.450Z,54.90
2019-02-17T10:35:27.506Z,47.50
2019-02-17T10:38:34.375Z,49.00
2019-02-17T10:41:41.296Z,57.13
2019-02-17T10:44:48.487Z,53.67
2019-02-17T10:47:55.907Z,53.40
2019-02-17T10:51:03.512Z,52.27
2019-02-17T10:54:10.418Z,67.53
2019-02-17T10:57:17.313Z,50.40
2019-02-17T11:00:24.099Z,48.83
2019-02-17T11:03:30.983Z,49.23
2019-02-17T11:06:37.874Z,42.50
2019-02-17T11:09:44.646Z,51.43
2019-02-17T11:12:55.356Z,59.93
2019-02-17T11:16:02.299Z,48.67
2019-02-17T11:19:09.130Z,48.30
2019-02-17T11:22:22.953Z,68.63
2019-02-17T11:53:10.574Z,44.70
2019-02-17T11:56:18.342Z,39.87
2019-02-17T11:59:25.797Z,43.00
2019-02-17T12:02:33.210Z,42.97
2019-02-17T12:05:41.054Z,44.50
2019-02-17T12:08:49.434Z,44.03
2019-02-17T12:11:56.930Z,47.03
2019-02-17T12:15:04.535Z,40.93
2019-02-17T12:18:11.880Z,38.87
2019-02-17T12:21:33.368Z,40.87
2019-02-17T12:25:03.046Z,43.37
2019-02-17T12:28:25.982Z,41.30
2019-02-17T12:31:36.518Z,48.17
2019-02-17T12:34:43.874Z,41.07
2019-02-17T12:37:51.494Z,48.33
2019-02-17T12:40:59.042Z,36.70
2019-02-17T12:44:06.570Z,35.57
2019-02-17T12:47:14.056Z,40.17
2019-02-17T12:50:21.490Z,44.03
2019-02-17T12:53:28.827Z,41.50
2019-02-17T12:56:36.208Z,35.10
2019-02-17T12:59:43.782Z,43.17
2019-02-17T13:02:51.188Z,35.30
2019-02-17T13:05:58.608Z,36.73
2019-02-17T13:09:07.554Z,34.90
2019-02-17T13:12:15.064Z,29.77
2019-02-17T13:15:22.508Z,31.23
2019-02-17T13:18:29.938Z,39.73
2019-02-17T13:21:37.325Z,38.43
2019-02-17T13:24:44.806Z,50.47
2019-02-17T13:27:52.232Z,35.07
2019-02-17T13:31:00.250Z,48.83
2019-02-17T13:34:07.596Z,56.80
2019-02-17T13:37:15.395Z,37.70
2019-02-17T13:40:24.606Z,45.50
2019-02-17T13:43:31.923Z,36.90
2019-02-17T13:46:39.322Z,40.43
2019-02-17T13:49:46.708Z,51.13
2019-02-17T13:52:54.138Z,51.20
2019-02-17T13:56:01.749Z,53.97
2019-02-17T13:59:09.342Z,40.90
2019-02-17T14:02:16.812Z,54.63
2019-02-17T14:05:24.530Z,45.53
2019-02-17T14:08:31.991Z,49.30
2019-02-17T14:11:39.470Z,54.43
2019-02-17T14:14:47.005Z,49.10
2019-02-17T14:17:55.248Z,56.27
2019-02-17T14:21:02.646Z,52.03
2019-02-17T14:24:10.082Z,54.67
2019-02-17T14:27:17.710Z,39.67
2019-02-17T14:30:27.636Z,36.73
2019-02-17T14:33:36.700Z,50.33
2019-02-17T14:36:44.074Z,49.70
2019-02-17T14:39:51.774Z,43.00
2019-02-17T14:43:00.493Z,49.20
2019-02-17T14:46:08.284Z,50.60
2019-02-17T14:49:15.833Z,115.10
2019-02-17T14:52:24.320Z,64.87
2019-02-17T14:55:32.412Z,71.03
2019-02-17T14:58:40.135Z,110.63
2019-02-17T15:01:48.657Z,73.00
2019-02-17T15:04:56.228Z,137.57
2019-02-17T15:08:03.793Z,142.83
2019-02-17T15:11:11.246Z,100.77
2019-02-17T15:14:18.810Z,127.30
2019-02-17T15:17:26.494Z,147.63
2019-02-17T15:20:33.896Z,88.37
2019-02-17T15:23:41.649Z,82.67
2019-02-17T15:26:49.310Z,77.13
2019-02-17T15:29:56.833Z,79.43
2019-02-17T15:33:04.488Z,86.17
2019-02-17T15:36:12.125Z,104.13
2019-02-17T15:39:19.559Z,132.97
2019-02-17T15:42:27.028Z,169.23
2019-02-17T15:45:34.526Z,174.13
2019-02-17T15:48:42.112Z,169.30
2019-02-17T15:51:49.517Z,179.17
2019-02-17T15:54:58.335Z,246.43
2019-02-17T15:58:05.747Z,346.70
2019-02-17T16:01:13.218Z,309.57
2019-02-17T16:04:28.164Z,222.17
2019-02-17T16:07:29.828Z,203.33
2019-02-17T16:10:37.419Z,158.47
2019-02-17T16:13:45.019Z,141.53
2019-02-17T16:16:52.419Z,141.77
2019-02-17T16:19:59.733Z,124.47
2019-02-17T16:23:07.283Z,139.97
2019-02-17T16:26:14.739Z,121.20
2019-02-17T16:29:22.179Z,141.03
2019-02-17T16:32:29.633Z,158.83
2019-02-17T16:35:38.344Z,145.83
2019-02-17T16:38:45.894Z,183.90
2019-02-17T16:41:53.346Z,207.50
2019-02-17T16:45:01.059Z,229.60
2019-02-17T16:48:08.453Z,265.57
2019-02-17T16:51:16.071Z,311.63
2019-02-17T16:54:23.635Z,265.70
2019-02-17T16:57:31.017Z,215.17
2019-02-17T17:00:38.417Z,235.63
2019-02-17T17:03:45.910Z,239.97
2019-02-17T17:06:53.347Z,268.57
2019-02-17T17:10:00.828Z,272.63
2019-02-17T17:13:09.440Z,252.63
2019-02-17T17:16:17.333Z,216.70
2019-02-17T17:19:24.843Z,255.30
2019-02-17T17:22:32.642Z,261.37
2019-02-17T17:25:40.309Z,252.77
2019-02-17T17:28:47.723Z,242.37
2019-02-17T17:31:55.341Z,281.13
2019-02-17T17:35:02.814Z,274.43
2019-02-17T17:38:10.332Z,242.03
2019-02-17T17:41:17.894Z,233.60
2019-02-17T17:44:25.322Z,240.80
2019-02-17T17:47:32.786Z,230.10
2019-02-17T17:50:40.157Z,223.33
2019-02-17T17:53:47.598Z,185.17
2019-02-17T17:56:55.108Z,211.67
2019-02-17T18:00:03.861Z,203.40
2019-02-17T18:03:11.354Z,193.47
2019-02-17T18:06:18.811Z,137.80
2019-02-17T18:09:26.390Z,158.60
2019-02-17T18:12:34.142Z,135.20
2019-02-17T18:15:43.352Z,127.53
2019-02-17T18:18:51.159Z,139.10
2019-02-17T18:21:58.751Z,109.43
2019-02-17T18:25:06.307Z,121.37
2019-02-17T18:28:13.883Z,138.17
2019-02-17T18:31:21.341Z,150.30
2019-02-17T18:34:29.900Z,163.70
2019-02-17T18:37:38.623Z,173.87
2019-02-17T18:40:47.924Z,185.93
2019-02-17T18:43:55.523Z,178.73
2019-02-17T18:47:03.394Z,194.57
2019-02-17T18:50:12.687Z,163.03
2019-02-17T18:53:22.603Z,195.62
2019-02-17T18:56:30.139Z,215.50
2019-02-17T18:59:38.487Z,234.80
2019-02-17T19:02:47.587Z,166.57
2019-02-17T19:05:55.254Z,205.23
2019-02-17T19:09:04.247Z,168.50
2019-02-17T19:12:13.261Z,166.87
2019-02-17T19:15:20.878Z,168.87
2019-02-17T19:18:28.419Z,165.10
2019-02-17T19:21:35.955Z,172.17
2019-02-17T19:24:43.513Z,161.77
2019-02-17T19:27:51.280Z,151.03
2019-02-17T19:30:58.795Z,137.53
2019-02-17T19:34:07.510Z,181.20
2019-02-17T19:37:14.957Z,148.30
2019-02-17T19:40:22.556Z,172.13
2019-02-17T19:43:30.466Z,191.67
2019-02-17T19:46:39.894Z,146.80
2019-02-17T19:49:56.463Z,165.87
2019-02-17T19:53:04.145Z,150.37
2019-02-17T19:56:11.499Z,150.10
2019-02-17T19:59:20.651Z,152.62
2019-02-17T20:02:45.817Z,138.30
2019-02-17T20:05:57.541Z,137.97
2019-02-17T20:09:06.687Z,160.07
2019-02-17T20:12:15.066Z,137.50
2019-02-17T20:15:24.361Z,128.93
2019-02-17T20:18:32.469Z,129.80
2019-02-17T20:21:40.126Z,129.83
2019-02-17T20:24:48.043Z,111.83
2019-02-17T20:27:57.337Z,121.37
2019-02-17T20:31:06.723Z,136.00
2019-02-17T20:34:16.475Z,130.20
2019-02-17T20:37:25.444Z,142.07
2019-02-17T20:40:34.831Z,130.00
2019-02-17T20:43:42.290Z,134.57
2019-02-17T20:46:49.737Z,130.27
2019-02-17T20:53:45.047Z,148.50
2019-02-17T20:56:52.511Z,129.27
2019-02-17T20:59:59.979Z,125.40
2019-02-17T21:03:07.314Z,135.43
2019-02-17T21:06:15.137Z,131.37
2019-02-17T21:09:22.585Z,147.43
2019-02-17T21:12:29.959Z,153.47
2019-02-17T21:15:37.532Z,143.17
2019-02-17T21:18:46.234Z,148.50
2019-02-17T21:21:53.747Z,155.07
2019-02-17T21:25:01.411Z,150.87
2019-02-17T21:28:08.768Z,135.97
2019-02-17T21:31:16.719Z,147.27
2019-02-17T21:34:27.671Z,165.83
2019-02-17T21:37:35.570Z,172.97
2019-02-17T21:40:43.013Z,192.43
2019-02-17T21:43:50.544Z,194.93
2019-02-17T21:46:58.125Z,171.00
2019-02-17T21:50:06.973Z,165.93
2019-02-17T21:53:20.311Z,134.30
2019-02-17T21:56:24.137Z,152.47
2019-02-17T21:59:34.407Z,150.37
2019-02-17T22:02:42.233Z,139.60
2019-02-17T22:05:49.831Z,140.10
2019-02-17T22:08:57.789Z,128.73
2019-02-17T22:12:05.458Z,134.97
2019-02-17T22:15:14.982Z,153.27
2019-02-17T22:18:23.093Z,132.30
2019-02-17T22:21:33.243Z,134.03
2019-02-17T22:24:43.173Z,121.23
2019-02-17T22:27:50.669Z,130.73
2019-02-17T22:30:58.293Z,160.83
2019-02-17T22:34:05.958Z,145.30
2019-02-17T22:37:13.551Z,117.70
2019-02-17T22:40:21.093Z,97.83
2019-02-17T22:43:28.773Z,136.87
2019-02-17T22:46:36.441Z,95.97
2019-02-17T22:49:44.349Z,121.27
2019-02-17T22:52:52.103Z,141.87
2019-02-17T22:55:59.799Z,136.33
2019-02-17T22:59:07.688Z,120.70
2019-02-17T23:02:16.201Z,164.80
2019-02-17T23:05:23.938Z,151.90
2019-02-17T23:08:32.237Z,156.27
2019-02-17T23:11:39.835Z,178.93
2019-02-17T23:14:47.306Z,149.33
2019-02-17T23:17:55.391Z,137.23
2019-02-17T23:21:02.976Z,125.33
2019-02-17T23:24:10.531Z,135.60
2019-02-17T23:27:18.146Z,121.93
2019-02-17T23:30:25.694Z,124.47
2019-02-17T23:33:33.239Z,129.73
2019-02-17T23:36:40.727Z,129.10
2019-02-17T23:39:48.239Z,106.47
2019-02-17T23:42:55.799Z,94.83
2019-02-17T23:46:03.363Z,118.10
2019-02-17T23:49:11.435Z,99.20
2019-02-17T23:52:19.929Z,111.90
2019-02-17T23:55:27.562Z,101.73
2019-02-17T23:58:35.242Z,114.57
